createdAt,value
2018-05-17T00:01:13.986Z,101392.84
2018-05-17T00:03:42.373Z,101407.03
2018-05-17T00:06:10.778Z,101403.62
2018-05-17T00:08:39.174Z,101405.77
2018-05-17T00:11:07.610Z,101404.17
2018-05-17T00:13:36.018Z,101411.42
2018-05-17T00:16:05.178Z,101412.94
2018-05-17T00:18:33.590Z,101419.36
2018-05-17T00:21:01.978Z,101419.70
2018-05-17T00:23:30.371Z,101421.45
2018-05-17T00:25:58.762Z,101427.02
2018-05-17T00:28:27.242Z,101423.42
2018-05-17T00:30:55.636Z,101425.28
2018-05-17T00:33:24.058Z,101418.63
2018-05-17T00:35:52.506Z,101428.80
2018-05-17T00:38:20.915Z,101434.58
2018-05-17T00:40:50.062Z,101433.84
2018-05-17T00:43:18.454Z,101435.94
2018-05-17T00:45:46.850Z,101429.15
2018-05-17T00:48:15.288Z,101434.53
2018-05-17T00:50:43.797Z,101435.03
2018-05-17T00:53:33.970Z,101435.78
2018-05-17T00:56:02.398Z,101434.20
2018-05-17T00:58:31.557Z,101438.68
2018-05-17T01:00:59.963Z,101439.77
2018-05-17T01:03:28.365Z,101434.72
2018-05-17T01:05:57.532Z,101434.02
2018-05-17T01:08:25.914Z,101437.71
2018-05-17T01:10:54.317Z,101440.37
2018-05-17T01:13:22.736Z,101438.98
2018-05-17T01:15:51.179Z,101440.80
2018-05-17T01:18:19.557Z,101444.69
2018-05-17T01:20:47.955Z,101449.38
2018-05-17T01:23:16.359Z,101453.39
2018-05-17T01:25:45.561Z,101451.20
2018-05-17T01:28:14.691Z,101451.39
2018-05-17T01:30:43.097Z,101451.75
2018-05-17T01:33:11.478Z,101456.38
2018-05-17T01:35:40.115Z,101463.41
2018-05-17T01:38:27.190Z,101461.36
2018-05-17T01:40:56.359Z,101464.44
2018-05-17T01:43:24.836Z,101472.84
2018-05-17T01:45:53.221Z,101472.63
2018-05-17T01:48:21.607Z,101467.20
2018-05-17T01:50:49.997Z,101466.05
2018-05-17T01:53:18.374Z,101471.08
2018-05-17T01:55:46.845Z,101466.72
2018-05-17T01:58:16.094Z,101470.30
2018-05-17T02:00:44.489Z,101476.38
2018-05-17T02:03:12.874Z,101474.48
2018-05-17T02:05:41.277Z,101476.69
2018-05-17T02:08:09.647Z,101470.45
2018-05-17T02:10:38.019Z,101483.17
2018-05-17T02:13:06.402Z,101485.39
2018-05-17T02:15:34.777Z,101483.20
2018-05-17T02:18:03.923Z,101490.11
2018-05-17T02:20:33.066Z,101486.84
2018-05-17T02:23:01.441Z,101488.66
2018-05-17T02:25:29.870Z,101495.59
2018-05-17T02:27:59.026Z,101486.41
2018-05-17T02:30:27.413Z,101490.20
2018-05-17T02:32:56.617Z,101491.95
2018-05-17T02:35:24.998Z,101495.11
2018-05-17T02:37:53.405Z,101495.94
2018-05-17T02:40:21.789Z,101491.31
2018-05-17T02:42:50.185Z,101496.25
2018-05-17T02:45:18.566Z,101498.61
2018-05-17T02:47:47.758Z,101497.35
2018-05-17T02:50:16.154Z,101498.98
2018-05-17T02:52:44.514Z,101503.09
2018-05-17T02:55:13.675Z,101498.31
2018-05-17T02:57:42.041Z,101497.42
2018-05-17T03:00:11.218Z,101502.41
2018-05-17T03:02:39.616Z,101507.97
2018-05-17T03:05:08.745Z,101500.16
2018-05-17T03:07:37.131Z,101511.30
2018-05-17T03:10:05.535Z,101508.27
2018-05-17T03:12:33.894Z,101512.13
2018-05-17T03:15:02.357Z,101503.92
2018-05-17T03:17:31.525Z,101514.16
2018-05-17T03:19:59.893Z,101513.39
2018-05-17T03:22:28.274Z,101519.09
2018-05-17T03:24:56.658Z,101521.77
2018-05-17T03:27:25.037Z,101517.55
2018-05-17T03:29:53.544Z,101524.25
2018-05-17T03:32:21.913Z,101527.02
2018-05-17T03:34:50.294Z,101530.76
2018-05-17T03:37:19.443Z,101529.02
2018-05-17T03:39:48.595Z,101529.44
2018-05-17T03:42:16.978Z,101522.84
2018-05-17T03:44:45.409Z,101530.59
2018-05-17T03:47:13.818Z,101528.72
2018-05-17T03:49:42.197Z,101523.11
2018-05-17T03:52:10.610Z,101526.77
2018-05-17T03:54:38.987Z,101525.56
2018-05-17T03:57:07.370Z,101532.19
2018-05-17T03:59:35.889Z,101538.06
2018-05-17T04:02:22.064Z,101536.07
2018-05-17T04:05:08.963Z,101540.31
2018-05-17T04:07:37.439Z,101538.09
2018-05-17T04:10:05.825Z,101541.57
2018-05-17T04:12:34.223Z,101539.80
2018-05-17T04:15:02.673Z,101540.08
2018-05-17T04:17:31.065Z,101539.41
2018-05-17T04:19:59.446Z,101538.23
2018-05-17T04:22:27.833Z,101536.47
2018-05-17T04:24:56.213Z,101535.30
2018-05-17T04:27:24.610Z,101538.58
2018-05-17T04:29:52.986Z,101544.38
2018-05-17T04:32:21.443Z,101536.67
2018-05-17T04:34:49.837Z,101547.30
2018-05-17T04:37:18.204Z,101548.48
2018-05-17T04:39:46.599Z,101548.92
2018-05-17T04:42:14.975Z,101550.70
2018-05-17T04:44:43.365Z,101548.91
2018-05-17T04:47:11.855Z,101558.98
2018-05-17T04:49:40.146Z,101547.05
2018-05-17T04:52:08.510Z,101562.09
2018-05-17T04:54:36.910Z,101554.36
2018-05-17T04:57:05.315Z,101563.55
2018-05-17T04:59:33.702Z,101559.55
2018-05-17T05:02:02.122Z,101561.64
2018-05-17T05:04:31.266Z,101551.05
2018-05-17T05:06:59.659Z,101551.22
2018-05-17T05:09:28.132Z,101555.77
2018-05-17T05:11:57.278Z,101549.65
2018-05-17T05:14:26.449Z,101560.95
2018-05-17T05:16:54.824Z,101555.33
2018-05-17T05:19:23.230Z,101555.56
2018-05-17T05:21:51.618Z,101554.53
2018-05-17T05:24:20.010Z,101557.22
2018-05-17T05:26:49.194Z,101556.88
2018-05-17T05:29:17.597Z,101555.56
2018-05-17T05:31:46.766Z,101551.34
2018-05-17T05:34:15.207Z,101557.84
2018-05-17T05:36:43.597Z,101556.88
2018-05-17T05:39:12.011Z,101548.68
2018-05-17T05:41:40.398Z,101553.82
2018-05-17T05:44:08.779Z,101564.07
2018-05-17T05:46:37.174Z,101564.08
2018-05-17T05:49:05.575Z,101565.79
2018-05-17T05:51:34.749Z,101561.11
2018-05-17T05:54:03.148Z,101566.05
2018-05-17T05:56:31.557Z,101570.25
2018-05-17T05:58:59.951Z,101577.36
2018-05-17T06:01:28.351Z,101575.52
2018-05-17T06:03:56.736Z,101571.68
2018-05-17T06:06:25.121Z,101569.59
2018-05-17T06:08:53.544Z,101573.10
2018-05-17T06:11:21.971Z,101572.52
2018-05-17T06:13:50.379Z,101574.70
2018-05-17T06:16:18.777Z,101574.52
2018-05-17T06:18:47.182Z,101579.08
2018-05-17T06:21:15.677Z,101577.62
2018-05-17T06:23:44.884Z,101573.66
2018-05-17T06:26:13.217Z,101584.30
2018-05-17T06:28:41.631Z,101579.02
2018-05-17T06:31:10.025Z,101586.00
2018-05-17T06:33:39.214Z,101582.91
2018-05-17T06:36:07.665Z,101585.80
2018-05-17T06:38:36.026Z,101579.91
2018-05-17T06:41:04.429Z,101573.34
2018-05-17T06:43:32.830Z,101576.14
2018-05-17T06:46:02.049Z,101582.75
2018-05-17T06:48:30.437Z,101581.80
2018-05-17T06:50:58.831Z,101582.22
2018-05-17T06:53:28.002Z,101589.19
2018-05-17T06:55:56.412Z,101587.63
2018-05-17T06:58:24.809Z,101582.50
2018-05-17T07:00:54.003Z,101587.05
2018-05-17T07:03:22.397Z,101582.97
2018-05-17T07:05:51.610Z,101584.78
2018-05-17T07:08:20.039Z,101591.05
2018-05-17T07:10:48.490Z,101592.52
2018-05-17T07:13:16.942Z,101595.10
2018-05-17T07:15:46.139Z,101593.06
2018-05-17T07:18:14.725Z,101594.83
2018-05-17T07:20:43.706Z,101596.28
2018-05-17T07:23:12.101Z,101590.94
2018-05-17T07:25:40.491Z,101599.25
2018-05-17T07:28:09.706Z,101593.22
2018-05-17T07:30:38.856Z,101587.27
2018-05-17T07:33:07.274Z,101585.72
2018-05-17T07:35:35.744Z,101594.23
2018-05-17T07:38:04.131Z,101592.87
2018-05-17T07:40:32.516Z,101594.67
2018-05-17T07:43:00.988Z,101588.05
2018-05-17T07:45:29.378Z,101599.92
2018-05-17T07:47:57.759Z,101592.46
2018-05-17T07:50:26.154Z,101603.39
2018-05-17T07:52:54.570Z,101604.23
2018-05-17T07:55:23.019Z,101603.17
2018-05-17T07:57:51.419Z,101600.05
2018-05-17T08:00:20.555Z,101598.27
2018-05-17T08:02:48.944Z,101599.00
2018-05-17T08:05:18.099Z,101597.61
2018-05-17T08:07:46.478Z,101597.06
2018-05-17T08:10:14.870Z,101599.68
2018-05-17T08:12:44.031Z,101597.83
2018-05-17T08:15:12.426Z,101605.73
2018-05-17T08:17:40.813Z,101599.54
2018-05-17T08:20:09.222Z,101597.36
2018-05-17T08:22:37.606Z,101609.49
2018-05-17T08:25:06.740Z,101604.61
2018-05-17T08:27:35.122Z,101610.16
2018-05-17T08:30:03.503Z,101603.83
2018-05-17T08:32:31.878Z,101594.56
2018-05-17T08:35:00.258Z,101590.66
2018-05-17T08:37:28.650Z,101597.51
2018-05-17T08:39:57.044Z,101592.55
2018-05-17T08:42:25.458Z,101587.45
2018-05-17T08:44:53.861Z,101599.05
2018-05-17T08:47:22.285Z,101599.06
2018-05-17T08:49:50.650Z,101598.59
2018-05-17T08:52:20.179Z,101599.81
2018-05-17T08:54:48.554Z,101601.96
2018-05-17T08:57:17.029Z,101606.02
2018-05-17T08:59:45.664Z,101605.62
2018-05-17T09:02:14.220Z,101603.42
2018-05-17T09:04:42.618Z,101608.70
2018-05-17T09:07:10.994Z,101600.88
2018-05-17T09:09:39.414Z,101602.45
2018-05-17T09:12:07.786Z,101601.03
2018-05-17T09:14:36.389Z,101609.11
2018-05-17T09:17:04.852Z,101599.91
2018-05-17T09:19:33.379Z,101606.05
2018-05-17T09:22:02.538Z,101611.91
2018-05-17T09:24:30.917Z,101604.25
2018-05-17T09:26:59.310Z,101606.16
2018-05-17T09:29:27.924Z,101608.45
2018-05-17T09:31:56.327Z,101614.38
2018-05-17T09:34:25.519Z,101605.66
2018-05-17T09:36:54.685Z,101606.97
2018-05-17T09:39:23.061Z,101604.62
2018-05-17T09:41:51.462Z,101602.95
2018-05-17T09:44:20.013Z,101610.59
2018-05-17T09:46:48.467Z,101603.80
2018-05-17T09:49:17.641Z,101601.31
2018-05-17T09:51:46.023Z,101600.09
2018-05-17T09:54:15.198Z,101597.95
2018-05-17T09:56:43.634Z,101604.07
2018-05-17T09:59:12.769Z,101602.96
2018-05-17T10:01:41.229Z,101606.44
2018-05-17T10:04:10.385Z,101603.73
2018-05-17T10:06:38.756Z,101597.79
2018-05-17T10:09:07.160Z,101601.72
2018-05-17T10:11:35.529Z,101597.72
2018-05-17T10:14:03.917Z,101593.70
2018-05-17T10:16:32.567Z,101602.80
2018-05-17T10:19:00.973Z,101598.49
2018-05-17T10:21:29.397Z,101598.17
2018-05-17T10:23:57.970Z,101592.56
2018-05-17T10:26:26.348Z,101591.73
2018-05-17T10:28:55.500Z,101590.73
2018-05-17T10:31:23.882Z,101591.95
2018-05-17T10:33:52.262Z,101586.44
2018-05-17T10:36:20.672Z,101581.22
2018-05-17T10:38:49.071Z,101588.95
2018-05-17T10:41:17.539Z,101582.56
2018-05-17T10:43:45.924Z,101579.36
2018-05-17T10:46:14.323Z,101576.37
2018-05-17T10:48:42.690Z,101575.50
2018-05-17T10:51:11.081Z,101583.29
2018-05-17T10:53:39.458Z,101576.20
2018-05-17T10:56:07.849Z,101576.70
2018-05-17T10:58:36.431Z,101578.39
2018-05-17T11:01:04.825Z,101575.89
2018-05-17T11:03:33.337Z,101575.39
2018-05-17T11:06:01.719Z,101572.02
2018-05-17T11:08:30.882Z,101574.89
2018-05-17T11:10:59.258Z,101576.53
2018-05-17T11:13:27.762Z,101574.55
2018-05-17T11:15:56.142Z,101580.14
2018-05-17T11:18:24.549Z,101575.48
2018-05-17T11:20:52.924Z,101571.01
2018-05-17T11:23:21.322Z,101566.64
2018-05-17T11:25:49.740Z,101556.47
2018-05-17T11:28:18.836Z,101562.66
2018-05-17T11:30:47.331Z,101560.89
2018-05-17T11:33:15.921Z,101553.06
2018-05-17T11:35:44.306Z,101546.89
2018-05-17T11:38:12.709Z,101549.23
2018-05-17T11:40:41.110Z,101551.14
2018-05-17T11:43:09.695Z,101550.50
2018-05-17T11:45:38.082Z,101554.52
2018-05-17T11:48:06.474Z,101556.83
2018-05-17T11:50:34.865Z,101560.52
2018-05-17T11:53:03.570Z,101554.69
2018-05-17T11:55:32.718Z,101542.11
2018-05-17T11:58:01.093Z,101549.17
2018-05-17T12:00:29.600Z,101557.70
2018-05-17T12:02:58.258Z,101551.91
2018-05-17T12:05:26.646Z,101548.34
2018-05-17T12:07:55.029Z,101543.55
2018-05-17T12:10:23.488Z,101541.30
2018-05-17T12:12:52.658Z,101553.98
2018-05-17T12:15:21.046Z,101544.99
2018-05-17T12:17:49.431Z,101539.95
2018-05-17T12:20:17.861Z,101538.55
2018-05-17T12:22:46.238Z,101538.53
2018-05-17T12:25:14.631Z,101536.42
2018-05-17T12:27:43.913Z,101528.13
2018-05-17T12:30:12.341Z,101526.96
2018-05-17T12:32:40.748Z,101529.50
2018-05-17T12:35:09.286Z,101531.10
2018-05-17T12:37:37.667Z,101532.51
2018-05-17T12:40:06.174Z,101528.23
2018-05-17T12:42:34.554Z,101525.37
2018-05-17T12:45:03.003Z,101529.67
2018-05-17T12:47:32.186Z,101528.42
2018-05-17T12:50:01.447Z,101526.70
2018-05-17T12:52:29.918Z,101526.30
2018-05-17T12:54:58.369Z,101531.36
2018-05-17T12:57:27.536Z,101526.50
2018-05-17T12:59:55.981Z,101526.11
2018-05-17T13:02:24.425Z,101527.92
2018-05-17T13:04:52.813Z,101530.28
2018-05-17T13:07:21.957Z,101532.55
2018-05-17T13:09:50.342Z,101526.39
2018-05-17T13:12:18.718Z,101513.11
2018-05-17T13:14:47.117Z,101509.46
2018-05-17T13:17:15.522Z,101507.57
2018-05-17T13:19:44.002Z,101509.45
2018-05-17T13:22:12.688Z,101513.00
2018-05-17T13:24:40.823Z,101514.41
2018-05-17T13:27:09.983Z,101512.03
2018-05-17T13:29:38.379Z,101511.48
2018-05-17T13:32:06.762Z,101501.06
2018-05-17T13:34:35.202Z,101500.34
2018-05-17T13:37:03.600Z,101496.70
2018-05-17T13:39:31.979Z,101491.98
2018-05-17T13:42:00.382Z,101492.43
2018-05-17T13:44:28.771Z,101493.76
2018-05-17T13:46:57.162Z,101490.52
2018-05-17T13:49:25.545Z,101497.25
2018-05-17T13:51:54.717Z,101490.25
2018-05-17T13:54:23.281Z,101488.72
2018-05-17T13:56:51.675Z,101481.85
2018-05-17T13:59:20.055Z,101485.59
2018-05-17T14:01:48.435Z,101483.34
2018-05-17T14:04:17.599Z,101488.99
2018-05-17T14:06:46.775Z,101474.25
2018-05-17T14:09:15.261Z,101491.17
2018-05-17T14:11:43.650Z,101480.08
2018-05-17T14:14:12.066Z,101477.00
2018-05-17T14:16:40.450Z,101469.27
2018-05-17T14:19:09.624Z,101467.61
2018-05-17T14:21:38.009Z,101467.00
2018-05-17T14:24:07.164Z,101466.53
2018-05-17T14:26:35.557Z,101467.28
2018-05-17T14:29:03.949Z,101468.28
2018-05-17T14:31:32.333Z,101472.59
2018-05-17T14:34:00.772Z,101466.39
2018-05-17T14:36:29.231Z,101471.33
2018-05-17T14:38:58.382Z,101465.92
2018-05-17T14:41:26.802Z,101472.45
2018-05-17T14:43:55.204Z,101473.67
2018-05-17T14:46:23.752Z,101469.13
2018-05-17T14:48:52.289Z,101463.50
2018-05-17T14:51:21.438Z,101461.85
2018-05-17T14:53:49.903Z,101465.95
2018-05-17T14:56:18.306Z,101463.02
2018-05-17T14:58:46.684Z,101466.88
2018-05-17T15:01:15.159Z,101458.27
2018-05-17T15:03:43.505Z,101469.95
2018-05-17T15:06:12.652Z,101463.66
2018-05-17T15:08:41.088Z,101474.19
2018-05-17T15:11:14.736Z,101461.59
2018-05-17T15:13:38.770Z,101465.87
2018-05-17T15:16:08.025Z,101463.84
2018-05-17T15:18:36.567Z,101460.11
2018-05-17T15:21:05.734Z,101462.73
2018-05-17T15:23:34.117Z,101458.33
2018-05-17T15:26:02.546Z,101466.47
2018-05-17T15:28:31.727Z,101459.56
2018-05-17T15:31:00.913Z,101457.19
2018-05-17T15:33:30.074Z,101453.66
2018-05-17T15:35:58.454Z,101456.66
2018-05-17T15:38:26.833Z,101456.00
2018-05-17T15:40:55.235Z,101453.50
2018-05-17T15:43:23.654Z,101451.16
2018-05-17T15:45:52.079Z,101445.03
2018-05-17T15:48:20.544Z,101438.24
2018-05-17T15:50:48.933Z,101441.73
2018-05-17T15:53:18.843Z,101438.60
2018-05-17T15:55:48.046Z,101448.85
2018-05-17T15:58:17.215Z,101450.36
2018-05-17T16:00:45.616Z,101445.00
2018-05-17T16:03:14.014Z,101445.48
2018-05-17T16:05:43.264Z,101444.20
2018-05-17T16:08:11.682Z,101434.91
2018-05-17T16:10:40.335Z,101437.39
2018-05-17T16:13:08.769Z,101431.64
2018-05-17T16:15:37.964Z,101438.16
2018-05-17T16:18:06.354Z,101432.50
2018-05-17T16:20:35.484Z,101431.23
2018-05-17T16:23:03.889Z,101434.42
2018-05-17T16:25:32.271Z,101430.59
2018-05-17T16:28:00.654Z,101429.54
2018-05-17T16:30:29.070Z,101434.63
2018-05-17T16:32:57.668Z,101435.42
2018-05-17T16:35:26.185Z,101436.89
2018-05-17T16:37:54.573Z,101437.45
2018-05-17T16:40:22.965Z,101444.98
2018-05-17T16:42:51.605Z,101443.33
2018-05-17T16:45:19.986Z,101437.41
2018-05-17T16:47:49.157Z,101435.45
2018-05-17T16:50:17.572Z,101435.03
2018-05-17T16:52:46.800Z,101433.25
2018-05-17T16:55:15.156Z,101440.31
2018-05-17T16:57:43.542Z,101442.06
2018-05-17T17:00:11.940Z,101446.09
2018-05-17T17:02:41.287Z,101449.80
2018-05-17T17:05:09.846Z,101450.77
2018-05-17T17:07:38.967Z,101448.50
2018-05-17T17:10:07.355Z,101457.98
2018-05-17T17:12:35.758Z,101456.63
2018-05-17T17:15:04.162Z,101455.48
2018-05-17T17:17:34.045Z,101452.80
2018-05-17T17:20:02.426Z,101460.64
2018-05-17T17:22:30.809Z,101450.37
2018-05-17T17:24:59.197Z,101461.73
2018-05-17T17:27:27.760Z,101461.31
2018-05-17T17:29:56.373Z,101466.20
2018-05-17T17:32:24.766Z,101463.95
2018-05-17T17:34:53.174Z,101463.63
2018-05-17T17:37:21.569Z,101459.25
2018-05-17T17:39:49.943Z,101461.90
2018-05-17T17:42:19.861Z,101466.34
2018-05-17T17:44:48.299Z,101461.99
2018-05-17T17:47:16.707Z,101472.08
2018-05-17T17:49:45.102Z,101475.17
2018-05-17T17:52:13.526Z,101470.78
2018-05-17T17:54:41.903Z,101471.67
2018-05-17T17:57:10.510Z,101474.31
2018-05-17T17:59:40.401Z,101478.27
2018-05-17T18:02:09.584Z,101474.73
2018-05-17T18:04:39.499Z,101469.50
2018-05-17T18:07:07.930Z,101472.55
2018-05-17T18:09:36.321Z,101475.64
2018-05-17T18:12:04.813Z,101480.87
2018-05-17T18:14:33.213Z,101483.48
2018-05-17T18:17:01.618Z,101482.59
2018-05-17T18:19:30.021Z,101480.86
2018-05-17T18:21:59.200Z,101483.42
2018-05-17T18:24:27.625Z,101486.84
2018-05-17T18:26:56.019Z,101492.84
2018-05-17T18:29:24.481Z,101487.64
2018-05-17T18:31:53.641Z,101492.00
2018-05-17T18:34:22.097Z,101497.15
2018-05-17T18:36:50.533Z,101493.58
2018-05-17T18:39:18.982Z,101492.98
2018-05-17T18:41:48.201Z,101493.05
2018-05-17T18:44:16.614Z,101500.45
2018-05-17T18:46:45.848Z,101506.89
2018-05-17T18:49:14.295Z,101509.89
2018-05-17T18:51:44.161Z,101510.81
2018-05-17T18:54:12.578Z,101515.59
2018-05-17T18:56:40.974Z,101514.23
2018-05-17T18:59:09.434Z,101515.33
2018-05-17T19:01:37.876Z,101523.84
2018-05-17T19:04:07.045Z,101529.08
2018-05-17T19:06:35.436Z,101529.62
2018-05-17T19:09:05.386Z,101532.73
2018-05-17T19:11:33.782Z,101532.16
2018-05-17T19:14:02.251Z,101534.59
2018-05-17T19:16:30.731Z,101545.02
2018-05-17T19:18:59.226Z,101540.33
2018-05-17T19:21:27.629Z,101544.19
2018-05-17T19:23:56.024Z,101551.47
2018-05-17T19:26:24.475Z,101559.80
2018-05-17T19:28:53.478Z,101558.89
2018-05-17T19:31:21.864Z,101557.58
2018-05-17T19:33:50.236Z,101559.13
2018-05-17T19:36:19.381Z,101566.91
2018-05-17T19:38:47.790Z,101568.16
2018-05-17T19:41:16.962Z,101575.42
2018-05-17T19:43:45.347Z,101582.61
2018-05-17T19:46:13.749Z,101581.38
2018-05-17T19:48:42.140Z,101585.29
2018-05-17T19:51:10.626Z,101584.25
2018-05-17T19:53:39.773Z,101586.80
2018-05-17T19:56:08.225Z,101586.87
2018-05-17T19:58:37.370Z,101591.33
2018-05-17T20:01:05.837Z,101588.05
2018-05-17T20:03:34.246Z,101593.89
2018-05-17T20:06:02.698Z,101592.64
2018-05-17T20:08:31.080Z,101597.08
2018-05-17T20:10:59.459Z,101602.39
2018-05-17T20:13:27.858Z,101599.77
2018-05-17T20:15:56.256Z,101605.62
2018-05-17T20:18:24.666Z,101609.53
2018-05-17T20:20:53.066Z,101609.89
2018-05-17T20:23:21.686Z,101610.19
2018-05-17T20:25:50.169Z,101610.25
2018-05-17T20:28:18.642Z,101612.85
2018-05-17T20:30:47.010Z,101606.27
2018-05-17T20:33:16.211Z,101615.84
2018-05-17T20:35:44.817Z,101617.21
2018-05-17T20:38:13.226Z,101612.57
2018-05-17T20:40:41.800Z,101618.59
2018-05-17T20:43:10.196Z,101624.10
2018-05-17T20:45:38.606Z,101621.77
2018-05-17T20:48:07.086Z,101627.48
2018-05-17T20:50:35.491Z,101620.84
2018-05-17T20:53:04.651Z,101625.16
2018-05-17T20:55:33.065Z,101623.90
2018-05-17T20:58:01.479Z,101629.00
2018-05-17T21:00:30.723Z,101632.85
2018-05-17T21:02:59.077Z,101632.23
2018-05-17T21:05:27.503Z,101637.83
2018-05-17T21:07:55.969Z,101639.71
2018-05-17T21:10:24.376Z,101640.59
2018-05-17T21:12:52.819Z,101643.46
2018-05-17T21:15:22.025Z,101641.86
2018-05-17T21:17:50.440Z,101646.78
2018-05-17T21:20:19.825Z,101641.48
2018-05-17T21:22:48.237Z,101642.86
2018-05-17T21:25:16.655Z,101643.07
2018-05-17T21:27:45.844Z,101646.64
2018-05-17T21:30:15.021Z,101649.48
2018-05-17T21:32:43.425Z,101653.70
2018-05-17T21:35:11.836Z,101655.77
2018-05-17T21:37:40.307Z,101656.04
2018-05-17T21:40:09.579Z,101651.56
2018-05-17T21:42:38.769Z,101653.92
2018-05-17T21:45:07.193Z,101655.41
2018-05-17T21:47:36.370Z,101654.52
2018-05-17T21:50:04.779Z,101649.22
2018-05-17T21:52:34.114Z,101659.23
2018-05-17T21:55:02.550Z,101650.31
2018-05-17T21:57:30.957Z,101665.34
2018-05-17T22:00:00.118Z,101662.49
2018-05-17T22:02:28.512Z,101655.59
2018-05-17T22:04:57.667Z,101658.08
2018-05-17T22:07:26.080Z,101658.39
2018-05-17T22:09:54.486Z,101662.41
2018-05-17T22:12:22.877Z,101665.78
2018-05-17T22:14:51.301Z,101669.64
2018-05-17T22:17:19.702Z,101666.98
2018-05-17T22:19:48.169Z,101669.88
2018-05-17T22:22:16.567Z,101674.98
2018-05-17T22:24:44.958Z,101673.55
2018-05-17T22:27:13.342Z,101673.31
2018-05-17T22:29:41.962Z,101672.91
2018-05-17T22:32:11.130Z,101671.73
2018-05-17T22:34:40.069Z,101668.47
2018-05-17T22:37:09.638Z,101668.88
2018-05-17T22:39:38.040Z,101668.26
2018-05-17T22:42:06.429Z,101665.77
2018-05-17T22:44:34.829Z,101673.43
2018-05-17T22:47:05.721Z,101674.48
2018-05-17T22:49:34.221Z,101676.95
2018-05-17T22:52:02.659Z,101683.69
2018-05-17T22:54:31.039Z,101677.95
2018-05-17T22:57:12.110Z,101674.03
2018-05-17T22:59:41.245Z,101669.38
2018-05-17T23:02:09.656Z,101674.83
2018-05-17T23:04:38.013Z,101672.58
2018-05-17T23:07:06.405Z,101670.84
2018-05-17T23:09:34.813Z,101673.44
2018-05-17T23:12:03.213Z,101671.24
2018-05-17T23:14:32.368Z,101672.56
2018-05-17T23:17:00.783Z,101671.00
2018-05-17T23:19:29.155Z,101669.72
2018-05-17T23:21:57.530Z,101673.75
2018-05-17T23:24:25.897Z,101674.76
2018-05-17T23:26:54.273Z,101675.66
2018-05-17T23:29:22.652Z,101670.95
2018-05-17T23:31:51.038Z,101671.50
2018-05-17T23:34:19.423Z,101667.03
2018-05-17T23:36:47.798Z,101668.56
2018-05-17T23:39:16.181Z,101660.56
2018-05-17T23:41:46.439Z,101662.77
2018-05-17T23:44:14.831Z,101660.44
2018-05-17T23:46:43.292Z,101661.75
2018-05-17T23:49:11.697Z,101657.03
2018-05-17T23:51:40.090Z,101660.00
2018-05-17T23:54:08.468Z,101660.66
2018-05-17T23:56:36.841Z,101665.97
2018-05-17T23:59:05.232Z,101668.95
